North Tonawanda, New York
Current Conditions -  °F | °C
As of 4:53 AM on Tuesday 27 Jan 2015 (Local Time) from KIAG Reporting Station
Light Snow Light Snow  
Wind Chill:   Ceiling: 1000
Heat Index: 17°   Visibility: 3mi
Dew Point: 12°   Wind: 13mph
Humidity: 81%   Direction: 40°NE
Pressure: 29.96"   Gusts: NA
Location:  43.03°N, 78.87°W
Report Text: KIAG 270953Z AUTO 04011KT 3SM -SN OVC010 M08/M11 A2996 RMK AO2 SLP166 P0000 T10831111 $
Loading
Personal Weather Stations






























Interactive Weather Map New forecast layout! Learn more

10-Day Weather Forecast

Advertisements
Track Severe Weather on mobile